sensor_id;sensor_type;location;lat;lon;timestamp;P1;durP1;ratioP1;P2;durP2;ratioP2
44145;SDS011;29809;52.432;4.780;2022-10-16T00:00:54;1.58;;;0.90;;
44145;SDS011;29809;52.432;4.780;2022-10-16T00:03:19;2.58;;;0.82;;
44145;SDS011;29809;52.432;4.780;2022-10-16T00:05:44;1.30;;;0.82;;
44145;SDS011;29809;52.432;4.780;2022-10-16T00:08:12;2.70;;;0.90;;
44145;SDS011;29809;52.432;4.780;2022-10-16T00:10:38;1.75;;;0.82;;
44145;SDS011;29809;52.432;4.780;2022-10-16T00:13:04;2.47;;;0.77;;
44145;SDS011;29809;52.432;4.780;2022-10-16T00:15:30;2.63;;;0.85;;
44145;SDS011;29809;52.432;4.780;2022-10-16T00:17:55;2.30;;;0.80;;
44145;SDS011;29809;52.432;4.780;2022-10-16T00:20:20;2.33;;;0.95;;
44145;SDS011;29809;52.432;4.780;2022-10-16T00:22:46;2.08;;;0.73;;
44145;SDS011;29809;52.432;4.780;2022-10-16T00:25:11;2.20;;;0.82;;
44145;SDS011;29809;52.432;4.780;2022-10-16T00:27:36;1.40;;;0.70;;
44145;SDS011;29809;52.432;4.780;2022-10-16T00:30:02;2.70;;;0.80;;
44145;SDS011;29809;52.432;4.780;2022-10-16T00:32:28;6.65;;;0.90;;
44145;SDS011;29809;52.432;4.780;2022-10-16T00:34:53;2.03;;;0.65;;
44145;SDS011;29809;52.432;4.780;2022-10-16T00:37:19;0.85;;;0.60;;
44145;SDS011;29809;52.432;4.780;2022-10-16T00:39:45;2.40;;;0.90;;
44145;SDS011;29809;52.432;4.780;2022-10-16T00:42:14;0.80;;;0.80;;
44145;SDS011;29809;52.432;4.780;2022-10-16T00:44:45;1.65;;;0.88;;
44145;SDS011;29809;52.432;4.780;2022-10-16T00:47:11;3.33;;;0.82;;
44145;SDS011;29809;52.432;4.780;2022-10-16T00:49:37;2.67;;;0.82;;
44145;SDS011;29809;52.432;4.780;2022-10-16T00:52:03;2.33;;;1.00;;
44145;SDS011;29809;52.432;4.780;2022-10-16T00:54:29;2.15;;;1.00;;
44145;SDS011;29809;52.432;4.780;2022-10-16T00:56:55;1.38;;;0.90;;
44145;SDS011;29809;52.432;4.780;2022-10-16T00:59:32;1.38;;;0.70;;
44145;SDS011;29809;52.432;4.780;2022-10-16T01:01:58;2.05;;;0.90;;
44145;SDS011;29809;52.432;4.780;2022-10-16T01:04:23;2.67;;;0.88;;
44145;SDS011;29809;52.432;4.780;2022-10-16T01:06:56;2.20;;;0.70;;
44145;SDS011;29809;52.432;4.780;2022-10-16T01:09:30;2.55;;;1.08;;
44145;SDS011;29809;52.432;4.780;2022-10-16T01:14:40;1.83;;;1.25;;
44145;SDS011;29809;52.432;4.780;2022-10-16T01:17:12;1.90;;;0.90;;
44145;SDS011;29809;52.432;4.780;2022-10-16T01:22:03;1.35;;;0.90;;
44145;SDS011;29809;52.432;4.780;2022-10-16T01:27:05;1.60;;;0.93;;
44145;SDS011;29809;52.432;4.780;2022-10-16T01:29:37;2.13;;;1.23;;
44145;SDS011;29809;52.432;4.780;2022-10-16T01:32:06;2.08;;;0.90;;
44145;SDS011;29809;52.432;4.780;2022-10-16T01:34:37;1.27;;;0.85;;
44145;SDS011;29809;52.432;4.780;2022-10-16T01:37:07;2.50;;;1.23;;
44145;SDS011;29809;52.432;4.780;2022-10-16T01:39:34;1.65;;;1.00;;
44145;SDS011;29809;52.432;4.780;2022-10-16T01:42:03;1.30;;;0.85;;
44145;SDS011;29809;52.432;4.780;2022-10-16T01:44:30;2.88;;;0.88;;
44145;SDS011;29809;52.432;4.780;2022-10-16T01:46:56;1.25;;;0.70;;
44145;SDS011;29809;52.432;4.780;2022-10-16T01:49:23;1.92;;;0.82;;
44145;SDS011;29809;52.432;4.780;2022-10-16T01:51:50;1.67;;;1.00;;
44145;SDS011;29809;52.432;4.780;2022-10-16T01:54:17;1.45;;;0.80;;
44145;SDS011;29809;52.432;4.780;2022-10-16T01:56:44;2.05;;;0.98;;
44145;SDS011;29809;52.432;4.780;2022-10-16T01:59:11;3.88;;;1.05;;
44145;SDS011;29809;52.432;4.780;2022-10-16T02:01:37;4.32;;;0.90;;
44145;SDS011;29809;52.432;4.780;2022-10-16T02:04:05;1.58;;;0.90;;
44145;SDS011;29809;52.432;4.780;2022-10-16T02:06:32;2.95;;;0.80;;
44145;SDS011;29809;52.432;4.780;2022-10-16T02:08:58;2.05;;;0.75;;
44145;SDS011;29809;52.432;4.780;2022-10-16T02:11:24;1.20;;;1.05;;
44145;SDS011;29809;52.432;4.780;2022-10-16T02:13:56;2.25;;;0.65;;
44145;SDS011;29809;52.432;4.780;2022-10-16T02:16:32;2.97;;;0.65;;
44145;SDS011;29809;52.432;4.780;2022-10-16T02:18:57;1.42;;;0.75;;
44145;SDS011;29809;52.432;4.780;2022-10-16T02:21:26;1.85;;;0.85;;
44145;SDS011;29809;52.432;4.780;2022-10-16T02:26:25;0.90;;;0.80;;
44145;SDS011;29809;52.432;4.780;2022-10-16T02:28:53;1.42;;;0.88;;
44145;SDS011;29809;52.432;4.780;2022-10-16T02:31:22;5.00;;;0.95;;
44145;SDS011;29809;52.432;4.780;2022-10-16T02:33:49;0.93;;;0.75;;
44145;SDS011;29809;52.432;4.780;2022-10-16T02:36:16;3.05;;;0.80;;
44145;SDS011;29809;52.432;4.780;2022-10-16T02:38:41;1.10;;;0.70;;
44145;SDS011;29809;52.432;4.780;2022-10-16T02:41:06;1.70;;;1.05;;
44145;SDS011;29809;52.432;4.780;2022-10-16T02:43:32;0.75;;;0.75;;
44145;SDS011;29809;52.432;4.780;2022-10-16T02:45:58;1.92;;;0.82;;
44145;SDS011;29809;52.432;4.780;2022-10-16T02:48:24;1.88;;;0.80;;
44145;SDS011;29809;52.432;4.780;2022-10-16T02:50:49;0.85;;;0.60;;
44145;SDS011;29809;52.432;4.780;2022-10-16T02:53:14;1.00;;;0.75;;
44145;SDS011;29809;52.432;4.780;2022-10-16T02:55:40;1.00;;;0.77;;
44145;SDS011;29809;52.432;4.780;2022-10-16T02:58:05;1.48;;;1.00;;
44145;SDS011;29809;52.432;4.780;2022-10-16T03:00:30;1.42;;;0.73;;
44145;SDS011;29809;52.432;4.780;2022-10-16T03:02:55;1.88;;;0.95;;
44145;SDS011;29809;52.432;4.780;2022-10-16T03:05:20;1.85;;;0.75;;
44145;SDS011;29809;52.432;4.780;2022-10-16T03:07:46;1.30;;;0.95;;
44145;SDS011;29809;52.432;4.780;2022-10-16T03:10:11;1.25;;;0.95;;
44145;SDS011;29809;52.432;4.780;2022-10-16T03:12:37;2.78;;;1.10;;
44145;SDS011;29809;52.432;4.780;2022-10-16T03:15:02;1.45;;;0.80;;
44145;SDS011;29809;52.432;4.780;2022-10-16T03:17:27;1.63;;;0.80;;
44145;SDS011;29809;52.432;4.780;2022-10-16T03:19:52;1.55;;;1.00;;
44145;SDS011;29809;52.432;4.780;2022-10-16T03:22:18;1.02;;;0.70;;
44145;SDS011;29809;52.432;4.780;2022-10-16T03:24:43;0.93;;;0.60;;
44145;SDS011;29809;52.432;4.780;2022-10-16T03:27:08;1.25;;;0.90;;
44145;SDS011;29809;52.432;4.780;2022-10-16T03:29:33;1.40;;;0.98;;
44145;SDS011;29809;52.432;4.780;2022-10-16T03:31:59;1.42;;;0.80;;
44145;SDS011;29809;52.432;4.780;2022-10-16T03:34:24;0.70;;;0.70;;
44145;SDS011;29809;52.432;4.780;2022-10-16T03:36:50;1.63;;;0.90;;
44145;SDS011;29809;52.432;4.780;2022-10-16T03:39:16;1.23;;;0.93;;
44145;SDS011;29809;52.432;4.780;2022-10-16T03:41:41;1.48;;;0.98;;
44145;SDS011;29809;52.432;4.780;2022-10-16T03:44:06;2.72;;;0.70;;
44145;SDS011;29809;52.432;4.780;2022-10-16T03:46:31;1.00;;;0.90;;
44145;SDS011;29809;52.432;4.780;2022-10-16T03:48:57;1.55;;;0.80;;
44145;SDS011;29809;52.432;4.780;2022-10-16T03:51:22;2.03;;;0.93;;
44145;SDS011;29809;52.432;4.780;2022-10-16T03:53:47;0.85;;;0.85;;
44145;SDS011;29809;52.432;4.780;2022-10-16T03:56:13;2.90;;;1.00;;
44145;SDS011;29809;52.432;4.780;2022-10-16T03:58:38;1.20;;;0.88;;
44145;SDS011;29809;52.432;4.780;2022-10-16T04:01:03;1.27;;;1.02;;
44145;SDS011;29809;52.432;4.780;2022-10-16T04:03:28;1.92;;;1.02;;
44145;SDS011;29809;52.432;4.780;2022-10-16T04:05:54;1.83;;;1.00;;
44145;SDS011;29809;52.432;4.780;2022-10-16T04:08:19;1.55;;;1.08;;
44145;SDS011;29809;52.432;4.780;2022-10-16T04:10:45;2.83;;;1.05;;
44145;SDS011;29809;52.432;4.780;2022-10-16T04:13:11;1.35;;;0.70;;
44145;SDS011;29809;52.432;4.780;2022-10-16T04:15:36;2.35;;;0.95;;
44145;SDS011;29809;52.432;4.780;2022-10-16T04:18:01;1.40;;;0.93;;
44145;SDS011;29809;52.432;4.780;2022-10-16T04:20:26;1.80;;;1.00;;
44145;SDS011;29809;52.432;4.780;2022-10-16T04:22:52;1.52;;;0.88;;
44145;SDS011;29809;52.432;4.780;2022-10-16T04:25:17;1.15;;;0.77;;
44145;SDS011;29809;52.432;4.780;2022-10-16T04:27:42;2.15;;;0.75;;
44145;SDS011;29809;52.432;4.780;2022-10-16T04:30:08;1.42;;;0.90;;
44145;SDS011;29809;52.432;4.780;2022-10-16T04:32:33;2.60;;;0.95;;
44145;SDS011;29809;52.432;4.780;2022-10-16T04:34:59;0.93;;;0.88;;
44145;SDS011;29809;52.432;4.780;2022-10-16T04:37:24;1.92;;;1.00;;
44145;SDS011;29809;52.432;4.780;2022-10-16T04:39:50;1.30;;;0.85;;
44145;SDS011;29809;52.432;4.780;2022-10-16T04:42:15;2.50;;;1.38;;
44145;SDS011;29809;52.432;4.780;2022-10-16T04:44:40;1.25;;;1.00;;
44145;SDS011;29809;52.432;4.780;2022-10-16T04:47:06;1.27;;;0.93;;
44145;SDS011;29809;52.432;4.780;2022-10-16T04:49:31;1.60;;;0.90;;
44145;SDS011;29809;52.432;4.780;2022-10-16T04:51:56;3.95;;;1.33;;
44145;SDS011;29809;52.432;4.780;2022-10-16T04:54:22;4.63;;;0.90;;
44145;SDS011;29809;52.432;4.780;2022-10-16T04:56:47;1.10;;;1.00;;
44145;SDS011;29809;52.432;4.780;2022-10-16T04:59:16;1.27;;;0.93;;
44145;SDS011;29809;52.432;4.780;2022-10-16T05:01:41;1.52;;;1.08;;
44145;SDS011;29809;52.432;4.780;2022-10-16T05:04:06;3.60;;;1.13;;
44145;SDS011;29809;52.432;4.780;2022-10-16T05:06:32;2.25;;;1.00;;
44145;SDS011;29809;52.432;4.780;2022-10-16T05:08:57;2.15;;;1.02;;
44145;SDS011;29809;52.432;4.780;2022-10-16T05:11:22;2.65;;;1.05;;
44145;SDS011;29809;52.432;4.780;2022-10-16T05:13:47;5.18;;;1.27;;
44145;SDS011;29809;52.432;4.780;2022-10-16T05:16:13;1.52;;;0.93;;
44145;SDS011;29809;52.432;4.780;2022-10-16T05:18:38;3.20;;;1.00;;
44145;SDS011;29809;52.432;4.780;2022-10-16T05:21:03;4.38;;;1.30;;
44145;SDS011;29809;52.432;4.780;2022-10-16T05:23:29;1.55;;;0.98;;
44145;SDS011;29809;52.432;4.780;2022-10-16T05:25:54;2.05;;;1.35;;
44145;SDS011;29809;52.432;4.780;2022-10-16T05:28:20;1.80;;;1.00;;
44145;SDS011;29809;52.432;4.780;2022-10-16T05:30:45;1.52;;;0.80;;
44145;SDS011;29809;52.432;4.780;2022-10-16T05:33:11;1.60;;;1.10;;
44145;SDS011;29809;52.432;4.780;2022-10-16T05:35:36;2.40;;;1.08;;
44145;SDS011;29809;52.432;4.780;2022-10-16T05:38:01;2.85;;;1.10;;
44145;SDS011;29809;52.432;4.780;2022-10-16T05:40:26;0.90;;;0.80;;
44145;SDS011;29809;52.432;4.780;2022-10-16T05:42:54;1.17;;;0.82;;
44145;SDS011;29809;52.432;4.780;2022-10-16T05:45:19;6.50;;;1.10;;
44145;SDS011;29809;52.432;4.780;2022-10-16T05:47:44;5.65;;;1.20;;
44145;SDS011;29809;52.432;4.780;2022-10-16T05:50:10;4.57;;;1.20;;
44145;SDS011;29809;52.432;4.780;2022-10-16T05:52:35;3.58;;;0.90;;
44145;SDS011;29809;52.432;4.780;2022-10-16T05:55:00;1.77;;;1.10;;
44145;SDS011;29809;52.432;4.780;2022-10-16T05:57:25;4.57;;;1.33;;
44145;SDS011;29809;52.432;4.780;2022-10-16T05:59:51;7.57;;;1.67;;
44145;SDS011;29809;52.432;4.780;2022-10-16T06:02:16;2.42;;;1.10;;
44145;SDS011;29809;52.432;4.780;2022-10-16T06:04:41;5.47;;;1.20;;
44145;SDS011;29809;52.432;4.780;2022-10-16T06:07:06;4.03;;;1.20;;
44145;SDS011;29809;52.432;4.780;2022-10-16T06:09:32;3.13;;;1.23;;
44145;SDS011;29809;52.432;4.780;2022-10-16T06:11:57;1.80;;;1.15;;
44145;SDS011;29809;52.432;4.780;2022-10-16T06:14:23;2.60;;;1.42;;
44145;SDS011;29809;52.432;4.780;2022-10-16T06:16:48;4.55;;;1.40;;
44145;SDS011;29809;52.432;4.780;2022-10-16T06:19:14;2.85;;;1.00;;
44145;SDS011;29809;52.432;4.780;2022-10-16T06:21:40;2.38;;;1.35;;
44145;SDS011;29809;52.432;4.780;2022-10-16T06:24:05;1.77;;;1.00;;
44145;SDS011;29809;52.432;4.780;2022-10-16T06:26:31;2.05;;;1.00;;
44145;SDS011;29809;52.432;4.780;2022-10-16T06:28:57;2.38;;;1.10;;
44145;SDS011;29809;52.432;4.780;2022-10-16T06:31:22;3.42;;;1.02;;
44145;SDS011;29809;52.432;4.780;2022-10-16T06:33:50;1.27;;;0.93;;
44145;SDS011;29809;52.432;4.780;2022-10-16T06:36:16;2.45;;;1.23;;
44145;SDS011;29809;52.432;4.780;2022-10-16T06:38:42;2.80;;;1.27;;
44145;SDS011;29809;52.432;4.780;2022-10-16T06:41:08;2.92;;;0.95;;
44145;SDS011;29809;52.432;4.780;2022-10-16T06:43:34;1.95;;;1.00;;
44145;SDS011;29809;52.432;4.780;2022-10-16T06:46:02;3.17;;;1.60;;
44145;SDS011;29809;52.432;4.780;2022-10-16T06:48:28;3.00;;;1.00;;
44145;SDS011;29809;52.432;4.780;2022-10-16T06:50:57;3.38;;;1.30;;
44145;SDS011;29809;52.432;4.780;2022-10-16T06:53:23;2.45;;;1.35;;
44145;SDS011;29809;52.432;4.780;2022-10-16T06:55:48;1.95;;;0.85;;
44145;SDS011;29809;52.432;4.780;2022-10-16T06:58:13;228.63;;;56.30;;
44145;SDS011;29809;52.432;4.780;2022-10-16T07:00:39;94.80;;;25.10;;
44145;SDS011;29809;52.432;4.780;2022-10-16T07:03:04;106.32;;;27.77;;
44145;SDS011;29809;52.432;4.780;2022-10-16T07:05:29;88.10;;;25.65;;
44145;SDS011;29809;52.432;4.780;2022-10-16T07:07:54;85.50;;;24.13;;
44145;SDS011;29809;52.432;4.780;2022-10-16T07:10:20;66.90;;;21.55;;
44145;SDS011;29809;52.432;4.780;2022-10-16T07:12:48;68.68;;;20.73;;
44145;SDS011;29809;52.432;4.780;2022-10-16T07:15:14;54.80;;;18.70;;
44145;SDS011;29809;52.432;4.780;2022-10-16T07:17:39;49.60;;;17.25;;
44145;SDS011;29809;52.432;4.780;2022-10-16T07:20:04;43.17;;;16.42;;
44145;SDS011;29809;52.432;4.780;2022-10-16T07:22:30;40.17;;;14.48;;
44145;SDS011;29809;52.432;4.780;2022-10-16T07:24:55;39.22;;;13.73;;
44145;SDS011;29809;52.432;4.780;2022-10-16T07:27:20;30.10;;;11.93;;
44145;SDS011;29809;52.432;4.780;2022-10-16T07:29:48;31.05;;;10.70;;
44145;SDS011;29809;52.432;4.780;2022-10-16T07:32:14;32.92;;;11.15;;
44145;SDS011;29809;52.432;4.780;2022-10-16T07:34:39;24.52;;;9.85;;
44145;SDS011;29809;52.432;4.780;2022-10-16T07:37:04;25.83;;;10.10;;
44145;SDS011;29809;52.432;4.780;2022-10-16T07:39:30;22.95;;;8.68;;
44145;SDS011;29809;52.432;4.780;2022-10-16T07:41:55;19.55;;;8.30;;
44145;SDS011;29809;52.432;4.780;2022-10-16T07:44:20;16.90;;;7.13;;
44145;SDS011;29809;52.432;4.780;2022-10-16T07:46:46;19.42;;;7.15;;
44145;SDS011;29809;52.432;4.780;2022-10-16T07:49:11;22.33;;;5.90;;
44145;SDS011;29809;52.432;4.780;2022-10-16T07:51:36;10.30;;;4.50;;
44145;SDS011;29809;52.432;4.780;2022-10-16T07:54:03;13.95;;;4.85;;
44145;SDS011;29809;52.432;4.780;2022-10-16T07:56:30;14.63;;;4.82;;
44145;SDS011;29809;52.432;4.780;2022-10-16T07:58:55;15.02;;;4.22;;
44145;SDS011;29809;52.432;4.780;2022-10-16T08:01:21;13.25;;;4.65;;
44145;SDS011;29809;52.432;4.780;2022-10-16T08:03:50;7.68;;;3.30;;
44145;SDS011;29809;52.432;4.780;2022-10-16T08:06:16;12.00;;;3.58;;
44145;SDS011;29809;52.432;4.780;2022-10-16T08:08:41;8.50;;;3.22;;
44145;SDS011;29809;52.432;4.780;2022-10-16T08:11:06;5.38;;;3.15;;
44145;SDS011;29809;52.432;4.780;2022-10-16T08:13:32;7.88;;;2.90;;
44145;SDS011;29809;52.432;4.780;2022-10-16T08:15:57;7.82;;;2.53;;
44145;SDS011;29809;52.432;4.780;2022-10-16T08:18:22;6.53;;;3.33;;
44145;SDS011;29809;52.432;4.780;2022-10-16T08:20:48;7.75;;;2.40;;
44145;SDS011;29809;52.432;4.780;2022-10-16T08:23:13;12.88;;;3.05;;
44145;SDS011;29809;52.432;4.780;2022-10-16T08:25:39;4.25;;;2.00;;
44145;SDS011;29809;52.432;4.780;2022-10-16T08:28:05;8.50;;;2.28;;
44145;SDS011;29809;52.432;4.780;2022-10-16T08:30:33;6.88;;;2.47;;
44145;SDS011;29809;52.432;4.780;2022-10-16T08:32:58;6.68;;;2.47;;
44145;SDS011;29809;52.432;4.780;2022-10-16T08:35:24;8.07;;;2.28;;
44145;SDS011;29809;52.432;4.780;2022-10-16T08:37:49;5.80;;;2.08;;
44145;SDS011;29809;52.432;4.780;2022-10-16T08:40:19;6.20;;;2.30;;
44145;SDS011;29809;52.432;4.780;2022-10-16T08:42:55;7.65;;;2.33;;
44145;SDS011;29809;52.432;4.780;2022-10-16T08:45:34;8.50;;;2.03;;
44145;SDS011;29809;52.432;4.780;2022-10-16T08:50:42;7.00;;;2.40;;
44145;SDS011;29809;52.432;4.780;2022-10-16T08:53:09;8.18;;;2.22;;
44145;SDS011;29809;52.432;4.780;2022-10-16T08:58:25;4.70;;;1.70;;
44145;SDS011;29809;52.432;4.780;2022-10-16T09:00:54;8.57;;;2.05;;
44145;SDS011;29809;52.432;4.780;2022-10-16T09:03:37;7.55;;;1.95;;
44145;SDS011;29809;52.432;4.780;2022-10-16T09:16:21;8.45;;;1.80;;
44145;SDS011;29809;52.432;4.780;2022-10-16T09:19:00;6.95;;;2.53;;
44145;SDS011;29809;52.432;4.780;2022-10-16T09:21:33;8.27;;;1.95;;
44145;SDS011;29809;52.432;4.780;2022-10-16T09:24:07;5.65;;;1.90;;
44145;SDS011;29809;52.432;4.780;2022-10-16T09:26:35;11.10;;;2.70;;
44145;SDS011;29809;52.432;4.780;2022-10-16T09:29:00;6.28;;;2.25;;
44145;SDS011;29809;52.432;4.780;2022-10-16T09:31:25;8.60;;;2.10;;
44145;SDS011;29809;52.432;4.780;2022-10-16T09:34:00;9.77;;;2.70;;
44145;SDS011;29809;52.432;4.780;2022-10-16T09:36:31;7.63;;;2.10;;
44145;SDS011;29809;52.432;4.780;2022-10-16T09:39:02;11.38;;;2.78;;
44145;SDS011;29809;52.432;4.780;2022-10-16T09:41:27;9.50;;;2.55;;
44145;SDS011;29809;52.432;4.780;2022-10-16T09:43:56;8.23;;;2.30;;
44145;SDS011;29809;52.432;4.780;2022-10-16T09:48:48;7.70;;;1.77;;
44145;SDS011;29809;52.432;4.780;2022-10-16T09:51:24;8.90;;;2.10;;
44145;SDS011;29809;52.432;4.780;2022-10-16T09:53:54;9.40;;;2.55;;
44145;SDS011;29809;52.432;4.780;2022-10-16T09:56:26;7.63;;;1.83;;
44145;SDS011;29809;52.432;4.780;2022-10-16T09:58:53;9.50;;;2.47;;
44145;SDS011;29809;52.432;4.780;2022-10-16T10:01:18;10.02;;;2.15;;
44145;SDS011;29809;52.432;4.780;2022-10-16T10:03:44;7.55;;;1.95;;
44145;SDS011;29809;52.432;4.780;2022-10-16T10:06:17;7.43;;;2.35;;
44145;SDS011;29809;52.432;4.780;2022-10-16T10:09:04;7.20;;;1.95;;
44145;SDS011;29809;52.432;4.780;2022-10-16T10:11:37;11.32;;;2.80;;
44145;SDS011;29809;52.432;4.780;2022-10-16T10:16:43;7.18;;;2.22;;
44145;SDS011;29809;52.432;4.780;2022-10-16T10:19:18;6.20;;;2.10;;
44145;SDS011;29809;52.432;4.780;2022-10-16T10:21:43;6.93;;;2.45;;
44145;SDS011;29809;52.432;4.780;2022-10-16T10:24:10;5.38;;;2.33;;
44145;SDS011;29809;52.432;4.780;2022-10-16T10:26:35;9.15;;;2.15;;
44145;SDS011;29809;52.432;4.780;2022-10-16T10:34:35;8.98;;;2.35;;
44145;SDS011;29809;52.432;4.780;2022-10-16T10:37:04;7.35;;;2.22;;
44145;SDS011;29809;52.432;4.780;2022-10-16T10:39:37;9.98;;;3.00;;
44145;SDS011;29809;52.432;4.780;2022-10-16T10:45:08;11.00;;;3.15;;
44145;SDS011;29809;52.432;4.780;2022-10-16T10:47:43;9.00;;;2.83;;
44145;SDS011;29809;52.432;4.780;2022-10-16T10:55:54;13.13;;;4.68;;
44145;SDS011;29809;52.432;4.780;2022-10-16T10:58:25;13.57;;;5.57;;
44145;SDS011;29809;52.432;4.780;2022-10-16T11:08:15;17.25;;;6.95;;
44145;SDS011;29809;52.432;4.780;2022-10-16T11:10:47;16.55;;;8.48;;
44145;SDS011;29809;52.432;4.780;2022-10-16T11:13:31;15.05;;;7.55;;
44145;SDS011;29809;52.432;4.780;2022-10-16T11:15:59;18.30;;;8.52;;
44145;SDS011;29809;52.432;4.780;2022-10-16T11:21:02;19.55;;;9.10;;
44145;SDS011;29809;52.432;4.780;2022-10-16T11:23:50;12.88;;;7.97;;
44145;SDS011;29809;52.432;4.780;2022-10-16T11:26:18;17.42;;;9.63;;
44145;SDS011;29809;52.432;4.780;2022-10-16T11:28:51;18.95;;;10.50;;
44145;SDS011;29809;52.432;4.780;2022-10-16T11:31:29;18.75;;;11.30;;
44145;SDS011;29809;52.432;4.780;2022-10-16T11:34:03;20.77;;;10.77;;
44145;SDS011;29809;52.432;4.780;2022-10-16T11:36:33;14.38;;;9.63;;
44145;SDS011;29809;52.432;4.780;2022-10-16T11:41:29;19.75;;;10.32;;
44145;SDS011;29809;52.432;4.780;2022-10-16T11:46:32;21.00;;;9.75;;
44145;SDS011;29809;52.432;4.780;2022-10-16T11:49:03;19.13;;;9.77;;
44145;SDS011;29809;52.432;4.780;2022-10-16T11:56:38;16.85;;;9.45;;
44145;SDS011;29809;52.432;4.780;2022-10-16T12:01:50;14.93;;;8.55;;
44145;SDS011;29809;52.432;4.780;2022-10-16T12:06:47;15.93;;;8.52;;
44145;SDS011;29809;52.432;4.780;2022-10-16T12:09:25;15.02;;;7.10;;
44145;SDS011;29809;52.432;4.780;2022-10-16T12:11:51;18.70;;;6.97;;
44145;SDS011;29809;52.432;4.780;2022-10-16T12:14:21;12.35;;;6.07;;
44145;SDS011;29809;52.432;4.780;2022-10-16T12:19:16;15.57;;;7.18;;
44145;SDS011;29809;52.432;4.780;2022-10-16T12:21:41;12.55;;;5.90;;
44145;SDS011;29809;52.432;4.780;2022-10-16T12:24:19;10.75;;;5.40;;
44145;SDS011;29809;52.432;4.780;2022-10-16T12:26:45;14.95;;;6.10;;
44145;SDS011;29809;52.432;4.780;2022-10-16T12:29:32;9.68;;;4.85;;
44145;SDS011;29809;52.432;4.780;2022-10-16T12:31:58;12.48;;;5.10;;
44145;SDS011;29809;52.432;4.780;2022-10-16T12:34:26;9.93;;;4.88;;
44145;SDS011;29809;52.432;4.780;2022-10-16T12:36:52;10.27;;;4.15;;
44145;SDS011;29809;52.432;4.780;2022-10-16T12:39:24;11.38;;;4.88;;
44145;SDS011;29809;52.432;4.780;2022-10-16T12:42:05;9.45;;;4.25;;
44145;SDS011;29809;52.432;4.780;2022-10-16T12:44:34;10.05;;;5.53;;
44145;SDS011;29809;52.432;4.780;2022-10-16T12:47:00;10.98;;;4.72;;
44145;SDS011;29809;52.432;4.780;2022-10-16T12:49:30;11.52;;;5.72;;
44145;SDS011;29809;52.432;4.780;2022-10-16T12:51:56;8.35;;;4.43;;
44145;SDS011;29809;52.432;4.780;2022-10-16T12:54:55;8.23;;;4.53;;
44145;SDS011;29809;52.432;4.780;2022-10-16T13:12:25;7.80;;;3.40;;
44145;SDS011;29809;52.432;4.780;2022-10-16T13:17:36;7.13;;;3.10;;
44145;SDS011;29809;52.432;4.780;2022-10-16T13:30:13;6.15;;;3.25;;
44145;SDS011;29809;52.432;4.780;2022-10-16T13:32:40;10.50;;;2.83;;
44145;SDS011;29809;52.432;4.780;2022-10-16T13:35:46;7.93;;;2.47;;
44145;SDS011;29809;52.432;4.780;2022-10-16T13:38:17;6.95;;;2.42;;
44145;SDS011;29809;52.432;4.780;2022-10-16T13:40:53;8.75;;;3.20;;
44145;SDS011;29809;52.432;4.780;2022-10-16T13:43:19;8.75;;;2.72;;
44145;SDS011;29809;52.432;4.780;2022-10-16T13:45:52;4.43;;;2.55;;
44145;SDS011;29809;52.432;4.780;2022-10-16T13:48:17;6.90;;;2.47;;
44145;SDS011;29809;52.432;4.780;2022-10-16T13:50:42;7.85;;;2.20;;
44145;SDS011;29809;52.432;4.780;2022-10-16T13:53:14;5.93;;;2.17;;
44145;SDS011;29809;52.432;4.780;2022-10-16T13:55:40;7.35;;;2.30;;
44145;SDS011;29809;52.432;4.780;2022-10-16T13:58:11;8.50;;;2.38;;
44145;SDS011;29809;52.432;4.780;2022-10-16T14:00:37;8.02;;;2.33;;
44145;SDS011;29809;52.432;4.780;2022-10-16T14:03:06;8.60;;;2.67;;
44145;SDS011;29809;52.432;4.780;2022-10-16T14:05:32;9.27;;;2.33;;
44145;SDS011;29809;52.432;4.780;2022-10-16T14:07:58;7.90;;;2.20;;
44145;SDS011;29809;52.432;4.780;2022-10-16T14:10:25;3.90;;;1.83;;
44145;SDS011;29809;52.432;4.780;2022-10-16T14:12:58;6.63;;;2.53;;
44145;SDS011;29809;52.432;4.780;2022-10-16T14:15:24;6.45;;;2.30;;
44145;SDS011;29809;52.432;4.780;2022-10-16T14:17:50;9.25;;;2.42;;
44145;SDS011;29809;52.432;4.780;2022-10-16T14:20:15;5.93;;;2.05;;
44145;SDS011;29809;52.432;4.780;2022-10-16T14:22:42;7.30;;;2.22;;
44145;SDS011;29809;52.432;4.780;2022-10-16T14:27:46;4.45;;;1.80;;
44145;SDS011;29809;52.432;4.780;2022-10-16T14:30:21;7.05;;;1.83;;
44145;SDS011;29809;52.432;4.780;2022-10-16T14:32:54;6.88;;;1.83;;
44145;SDS011;29809;52.432;4.780;2022-10-16T14:35:24;7.10;;;2.25;;
44145;SDS011;29809;52.432;4.780;2022-10-16T14:37:53;6.78;;;2.03;;
44145;SDS011;29809;52.432;4.780;2022-10-16T14:40:19;5.55;;;1.48;;
44145;SDS011;29809;52.432;4.780;2022-10-16T14:42:45;4.07;;;1.45;;
44145;SDS011;29809;52.432;4.780;2022-10-16T14:45:10;7.53;;;1.83;;
44145;SDS011;29809;52.432;4.780;2022-10-16T14:47:36;8.50;;;1.70;;
44145;SDS011;29809;52.432;4.780;2022-10-16T14:50:11;5.68;;;1.77;;
44145;SDS011;29809;52.432;4.780;2022-10-16T14:52:36;6.18;;;1.85;;
44145;SDS011;29809;52.432;4.780;2022-10-16T14:55:02;7.00;;;2.15;;
44145;SDS011;29809;52.432;4.780;2022-10-16T14:57:27;6.18;;;1.92;;
44145;SDS011;29809;52.432;4.780;2022-10-16T14:59:56;5.55;;;2.20;;
44145;SDS011;29809;52.432;4.780;2022-10-16T15:02:29;5.63;;;1.70;;
44145;SDS011;29809;52.432;4.780;2022-10-16T15:04:55;3.10;;;1.33;;
44145;SDS011;29809;52.432;4.780;2022-10-16T15:07:20;5.18;;;1.88;;
44145;SDS011;29809;52.432;4.780;2022-10-16T15:09:46;6.50;;;1.90;;
44145;SDS011;29809;52.432;4.780;2022-10-16T15:12:11;7.93;;;2.10;;
44145;SDS011;29809;52.432;4.780;2022-10-16T15:14:36;4.65;;;1.92;;
44145;SDS011;29809;52.432;4.780;2022-10-16T15:17:02;4.55;;;1.67;;
44145;SDS011;29809;52.432;4.780;2022-10-16T15:19:27;5.40;;;1.75;;
44145;SDS011;29809;52.432;4.780;2022-10-16T15:21:52;2.97;;;1.23;;
44145;SDS011;29809;52.432;4.780;2022-10-16T15:24:18;5.90;;;1.77;;
44145;SDS011;29809;52.432;4.780;2022-10-16T15:26:43;5.25;;;1.90;;
44145;SDS011;29809;52.432;4.780;2022-10-16T15:29:10;7.05;;;2.22;;
44145;SDS011;29809;52.432;4.780;2022-10-16T15:31:36;5.90;;;1.58;;
44145;SDS011;29809;52.432;4.780;2022-10-16T15:34:02;3.67;;;1.58;;
44145;SDS011;29809;52.432;4.780;2022-10-16T15:36:30;3.28;;;1.42;;
44145;SDS011;29809;52.432;4.780;2022-10-16T15:38:56;3.25;;;1.52;;
44145;SDS011;29809;52.432;4.780;2022-10-16T15:41:21;4.22;;;1.73;;
44145;SDS011;29809;52.432;4.780;2022-10-16T15:43:50;3.15;;;1.65;;
44145;SDS011;29809;52.432;4.780;2022-10-16T15:46:17;2.88;;;1.40;;
44145;SDS011;29809;52.432;4.780;2022-10-16T15:48:42;2.50;;;1.48;;
44145;SDS011;29809;52.432;4.780;2022-10-16T15:51:08;3.90;;;1.88;;
44145;SDS011;29809;52.432;4.780;2022-10-16T15:53:33;4.90;;;1.88;;
44145;SDS011;29809;52.432;4.780;2022-10-16T15:56:08;5.47;;;1.30;;
44145;SDS011;29809;52.432;4.780;2022-10-16T15:58:34;3.88;;;1.95;;
44145;SDS011;29809;52.432;4.780;2022-10-16T16:01:00;5.63;;;1.77;;
44145;SDS011;29809;52.432;4.780;2022-10-16T16:03:26;3.88;;;1.80;;
44145;SDS011;29809;52.432;4.780;2022-10-16T16:05:52;3.95;;;2.10;;
44145;SDS011;29809;52.432;4.780;2022-10-16T16:08:18;3.42;;;2.05;;
44145;SDS011;29809;52.432;4.780;2022-10-16T16:10:43;6.00;;;2.30;;
44145;SDS011;29809;52.432;4.780;2022-10-16T16:13:09;2.75;;;1.75;;
44145;SDS011;29809;52.432;4.780;2022-10-16T16:15:36;7.78;;;2.90;;
44145;SDS011;29809;52.432;4.780;2022-10-16T16:18:03;2.67;;;1.85;;
44145;SDS011;29809;52.432;4.780;2022-10-16T16:20:33;4.05;;;2.35;;
44145;SDS011;29809;52.432;4.780;2022-10-16T16:22:58;5.85;;;2.83;;
44145;SDS011;29809;52.432;4.780;2022-10-16T16:25:23;6.07;;;2.33;;
44145;SDS011;29809;52.432;4.780;2022-10-16T16:27:48;3.95;;;2.30;;
44145;SDS011;29809;52.432;4.780;2022-10-16T16:30:14;3.97;;;2.33;;